createdAt,value
2018-05-15T00:01:17.196Z,16.93
2018-05-15T00:03:44.696Z,16.50
2018-05-15T00:06:12.980Z,16.40
2018-05-15T00:08:41.500Z,12.87
2018-05-15T00:11:09.001Z,15.40
2018-05-15T00:13:36.488Z,13.50
2018-05-15T00:16:04.037Z,11.93
2018-05-15T00:18:32.285Z,13.13
2018-05-15T00:21:00.112Z,15.77
2018-05-15T00:23:27.736Z,12.30
2018-05-15T00:25:55.989Z,17.03
2018-05-15T00:28:24.183Z,12.83
2018-05-15T00:30:52.436Z,14.80
2018-05-15T00:33:19.916Z,15.63
2018-05-15T00:35:50.358Z,12.93
2018-05-15T00:38:20.925Z,13.03
2018-05-15T00:40:48.548Z,10.20
2018-05-15T00:43:16.408Z,14.00
2018-05-15T00:45:44.651Z,13.90
2018-05-15T00:48:13.914Z,11.00
2018-05-15T00:50:41.611Z,13.20
2018-05-15T00:53:09.151Z,9.10
2018-05-15T00:55:45.660Z,14.90
2018-05-15T00:58:13.923Z,8.73
2018-05-15T01:00:41.495Z,10.43
2018-05-15T01:03:09.740Z,9.87
2018-05-15T01:05:37.231Z,8.37
2018-05-15T01:08:05.480Z,11.93
2018-05-15T01:10:32.975Z,16.40
2018-05-15T01:13:00.527Z,9.10
2018-05-15T01:15:28.831Z,20.40
2018-05-15T01:17:56.328Z,16.37
2018-05-15T01:20:25.323Z,16.07
2018-05-15T01:22:52.827Z,13.00
2018-05-15T01:25:20.363Z,13.30
2018-05-15T01:27:48.639Z,11.83
2018-05-15T01:30:16.901Z,11.83
2018-05-15T01:32:44.471Z,11.53
2018-05-15T01:35:12.748Z,13.70
2018-05-15T01:37:40.307Z,11.37
2018-05-15T01:40:08.622Z,11.10
2018-05-15T01:42:36.391Z,12.97
2018-05-15T01:45:04.156Z,11.13
2018-05-15T01:47:31.664Z,12.83
2018-05-15T01:50:00.571Z,13.80
2018-05-15T01:52:28.815Z,17.67
2018-05-15T01:54:56.543Z,16.70
2018-05-15T01:57:24.024Z,13.50
2018-05-15T01:59:51.617Z,13.23
2018-05-15T02:02:19.994Z,16.70
2018-05-15T02:04:48.925Z,15.63
2018-05-15T02:07:17.389Z,12.57
2018-05-15T02:09:45.807Z,21.50
2018-05-15T02:12:13.402Z,18.23
2018-05-15T02:14:41.652Z,18.23
2018-05-15T02:17:09.239Z,18.00
2018-05-15T02:19:37.520Z,16.10
2018-05-15T02:22:06.040Z,18.50
2018-05-15T02:24:33.539Z,22.37
2018-05-15T02:27:01.020Z,22.50
2018-05-15T02:29:29.359Z,12.90
2018-05-15T02:31:57.205Z,17.73
2018-05-15T02:34:24.696Z,12.83
2018-05-15T02:36:52.196Z,15.03
2018-05-15T02:39:19.683Z,16.83
2018-05-15T02:41:47.173Z,16.40
2018-05-15T02:44:15.444Z,16.43
2018-05-15T02:46:43.024Z,13.63
2018-05-15T02:49:11.293Z,14.23
2018-05-15T02:51:39.539Z,12.20
2018-05-15T02:54:07.028Z,14.13
2018-05-15T02:56:35.312Z,26.47
2018-05-15T02:59:02.796Z,14.87
2018-05-15T03:01:30.292Z,9.13
2018-05-15T03:03:57.804Z,12.03
2018-05-15T03:06:25.291Z,13.43
2018-05-15T03:08:52.895Z,12.97
2018-05-15T03:11:21.143Z,14.10
2018-05-15T03:13:50.160Z,11.40
2018-05-15T03:16:18.524Z,8.80
2018-05-15T03:18:46.008Z,16.47
2018-05-15T03:21:14.271Z,11.60
2018-05-15T03:23:42.611Z,15.53
2018-05-15T03:26:10.112Z,13.63
2018-05-15T03:28:38.636Z,13.57
2018-05-15T03:31:06.152Z,13.40
2018-05-15T03:33:34.780Z,10.80
2018-05-15T03:36:02.540Z,11.13
2018-05-15T03:38:30.020Z,12.57
2018-05-15T03:40:57.517Z,11.70
2018-05-15T03:43:25.767Z,13.03
2018-05-15T03:45:54.755Z,12.17
2018-05-15T03:48:22.252Z,13.77
2018-05-15T03:50:49.799Z,11.40
2018-05-15T03:53:18.423Z,11.60
2018-05-15T03:55:45.899Z,10.40
2018-05-15T03:58:13.392Z,10.93
2018-05-15T04:00:53.588Z,11.47
2018-05-15T04:03:33.193Z,7.67
2018-05-15T04:06:13.356Z,9.33
2018-05-15T04:08:41.746Z,10.30
2018-05-15T04:11:10.528Z,7.87
2018-05-15T04:13:37.967Z,9.67
2018-05-15T04:16:06.287Z,15.57
2018-05-15T04:18:33.768Z,9.60
2018-05-15T04:21:01.327Z,10.97
2018-05-15T04:23:28.808Z,8.83
2018-05-15T04:25:56.287Z,9.97
2018-05-15T04:28:24.645Z,6.30
2018-05-15T04:30:52.808Z,7.83
2018-05-15T04:33:20.308Z,8.53
2018-05-15T04:35:47.844Z,6.37
2018-05-15T04:38:16.088Z,7.73
2018-05-15T04:40:43.732Z,7.60
2018-05-15T04:43:11.208Z,7.37
2018-05-15T04:45:38.699Z,9.33
2018-05-15T04:48:06.968Z,7.40
2018-05-15T04:50:35.492Z,6.67
2018-05-15T04:53:02.989Z,8.30
2018-05-15T04:55:30.572Z,9.90
2018-05-15T04:57:58.867Z,7.03
2018-05-15T05:00:26.395Z,7.50
2018-05-15T05:02:55.510Z,6.80
2018-05-15T05:05:23.980Z,8.20
2018-05-15T05:07:52.503Z,6.20
2018-05-15T05:10:20.028Z,6.67
2018-05-15T05:12:48.499Z,6.07
2018-05-15T05:15:17.856Z,7.33
2018-05-15T05:17:45.365Z,6.63
2018-05-15T05:20:13.944Z,6.90
2018-05-15T05:22:41.623Z,7.10
2018-05-15T05:25:09.974Z,6.77
2018-05-15T05:27:38.233Z,6.33
2018-05-15T05:30:07.232Z,6.90
2018-05-15T05:32:34.731Z,10.83
2018-05-15T05:35:02.718Z,7.17
2018-05-15T05:37:30.241Z,8.23
2018-05-15T05:39:59.982Z,7.83
2018-05-15T05:42:27.484Z,8.53
2018-05-15T05:44:56.131Z,8.47
2018-05-15T05:47:23.707Z,8.70
2018-05-15T05:49:51.180Z,9.07
2018-05-15T05:52:18.659Z,6.77
2018-05-15T05:54:46.919Z,10.80
2018-05-15T05:57:14.727Z,9.20
2018-05-15T05:59:42.264Z,13.20
2018-05-15T06:02:10.504Z,8.97
2018-05-15T06:04:38.336Z,9.07
2018-05-15T06:07:06.856Z,6.90
2018-05-15T06:09:34.341Z,7.60
2018-05-15T06:12:02.919Z,8.13
2018-05-15T06:14:31.163Z,13.63
2018-05-15T06:16:58.662Z,10.33
2018-05-15T06:19:26.909Z,7.57
2018-05-15T06:21:54.391Z,9.03
2018-05-15T06:24:21.904Z,7.43
2018-05-15T06:26:50.153Z,10.03
2018-05-15T06:29:17.699Z,9.50
2018-05-15T06:31:45.192Z,10.50
2018-05-15T06:34:13.439Z,13.50
2018-05-15T06:36:41.306Z,7.40
2018-05-15T06:39:09.823Z,11.10
2018-05-15T06:41:37.340Z,12.33
2018-05-15T06:44:04.822Z,10.00
2018-05-15T06:46:32.324Z,10.43
2018-05-15T06:49:00.041Z,10.60
2018-05-15T06:51:27.526Z,12.63
2018-05-15T06:53:55.016Z,9.47
2018-05-15T06:56:23.266Z,10.40
2018-05-15T06:58:50.853Z,8.70
2018-05-15T07:01:19.091Z,8.57
2018-05-15T07:03:46.824Z,7.20
2018-05-15T07:06:14.320Z,10.17
2018-05-15T07:08:41.797Z,8.03
2018-05-15T07:11:10.470Z,11.03
2018-05-15T07:13:37.980Z,10.60
2018-05-15T07:16:05.489Z,10.63
2018-05-15T07:18:32.964Z,6.00
2018-05-15T07:21:01.208Z,6.90
2018-05-15T07:23:28.699Z,5.13
2018-05-15T07:25:56.939Z,5.50
2018-05-15T07:28:24.440Z,5.80
2018-05-15T07:30:53.480Z,4.30
2018-05-15T07:33:20.957Z,4.77
2018-05-15T07:35:49.744Z,5.07
2018-05-15T07:38:17.233Z,4.83
2018-05-15T07:40:45.024Z,4.63
2018-05-15T07:43:14.247Z,5.30
2018-05-15T07:45:43.156Z,4.60
2018-05-15T07:48:10.647Z,4.33
2018-05-15T07:50:38.131Z,4.00
2018-05-15T07:53:05.891Z,4.17
2018-05-15T07:55:33.409Z,4.20
2018-05-15T07:58:01.675Z,5.53
2018-05-15T08:00:29.156Z,4.20
2018-05-15T08:02:56.700Z,4.60
2018-05-15T08:05:24.964Z,9.70
2018-05-15T08:07:52.679Z,4.90
2018-05-15T08:10:20.620Z,4.17
2018-05-15T08:12:48.412Z,4.73
2018-05-15T08:15:15.908Z,5.37
2018-05-15T08:17:43.748Z,5.07
2018-05-15T08:20:11.273Z,5.77
2018-05-15T08:22:38.771Z,4.73
2018-05-15T08:25:07.020Z,5.30
2018-05-15T08:27:34.544Z,7.03
2018-05-15T08:30:02.788Z,4.23
2018-05-15T08:32:30.267Z,4.67
2018-05-15T08:34:57.771Z,5.93
2018-05-15T08:37:25.519Z,5.80
2018-05-15T08:39:53.021Z,4.27
2018-05-15T08:42:20.500Z,5.00
2018-05-15T08:44:48.750Z,5.67
2018-05-15T08:47:16.247Z,5.80
2018-05-15T08:49:44.767Z,6.40
2018-05-15T08:52:12.279Z,4.93
2018-05-15T08:54:40.809Z,4.77
2018-05-15T08:57:08.288Z,5.37
2018-05-15T08:59:35.784Z,10.43
2018-05-15T09:02:04.128Z,5.67
2018-05-15T09:04:32.894Z,5.73
2018-05-15T09:07:00.384Z,5.30
2018-05-15T09:09:27.996Z,6.00
2018-05-15T09:11:55.863Z,5.20
2018-05-15T09:14:23.371Z,5.80
2018-05-15T09:16:52.279Z,5.67
2018-05-15T09:19:20.202Z,5.97
2018-05-15T09:21:49.424Z,8.03
2018-05-15T09:24:16.921Z,5.77
2018-05-15T09:26:45.752Z,5.53
2018-05-15T09:29:13.845Z,5.80
2018-05-15T09:31:43.559Z,5.07
2018-05-15T09:34:11.093Z,5.50
2018-05-15T09:36:38.688Z,10.50
2018-05-15T09:39:06.931Z,5.33
2018-05-15T09:41:34.407Z,6.70
2018-05-15T09:44:04.398Z,5.53
2018-05-15T09:46:33.641Z,6.33
2018-05-15T09:49:03.498Z,5.40
2018-05-15T09:51:32.618Z,5.33
2018-05-15T09:54:02.611Z,5.27
2018-05-15T09:56:31.447Z,6.13
2018-05-15T09:59:00.315Z,6.00
2018-05-15T10:01:29.488Z,5.20
2018-05-15T10:04:04.831Z,6.10
2018-05-15T10:06:33.911Z,4.93
2018-05-15T10:09:08.250Z,4.27
2018-05-15T10:11:37.174Z,4.50
2018-05-15T10:14:04.669Z,4.20
2018-05-15T10:16:32.213Z,4.17
2018-05-15T10:19:10.140Z,4.70
2018-05-15T10:21:40.215Z,5.00
2018-05-15T10:24:08.852Z,5.30
2018-05-15T10:26:40.687Z,3.27
2018-05-15T10:29:09.028Z,4.90
2018-05-15T10:31:36.503Z,5.67
2018-05-15T10:34:04.748Z,4.80
2018-05-15T10:36:32.242Z,4.60
2018-05-15T10:39:00.034Z,5.20
2018-05-15T10:41:27.528Z,4.60
2018-05-15T10:43:55.798Z,6.03
2018-05-15T10:46:27.112Z,5.60
2018-05-15T10:48:54.592Z,5.27
2018-05-15T10:51:22.081Z,5.47
2018-05-15T10:53:50.344Z,8.77
2018-05-15T10:56:20.932Z,5.90
2018-05-15T10:58:48.432Z,4.87
2018-05-15T11:01:15.924Z,4.70
2018-05-15T11:03:44.782Z,7.50
2018-05-15T11:06:13.695Z,4.57
2018-05-15T11:08:41.105Z,5.07
2018-05-15T11:11:08.613Z,5.77
2018-05-15T11:13:39.467Z,5.20
2018-05-15T11:16:10.599Z,7.20
2018-05-15T11:18:42.426Z,5.90
2018-05-15T11:21:17.175Z,4.60
2018-05-15T11:23:57.667Z,6.20
2018-05-15T11:26:26.059Z,5.67
2018-05-15T11:28:54.672Z,6.20
2018-05-15T11:31:23.761Z,5.40
2018-05-15T11:33:52.451Z,4.23
2018-05-15T11:36:22.012Z,5.03
2018-05-15T11:38:51.916Z,4.60
2018-05-15T11:41:19.398Z,4.10
2018-05-15T11:43:46.875Z,4.67
2018-05-15T11:46:15.571Z,4.23
2018-05-15T11:48:46.882Z,3.10
2018-05-15T11:51:19.307Z,4.80
2018-05-15T11:53:50.369Z,4.60
2018-05-15T11:56:19.503Z,4.00
2018-05-15T11:58:48.331Z,3.90
2018-05-15T12:01:17.163Z,3.70
2018-05-15T12:03:48.115Z,3.40
2018-05-15T12:06:15.868Z,3.90
2018-05-15T12:08:43.364Z,3.30
2018-05-15T12:11:11.699Z,4.00
2018-05-15T12:13:40.371Z,3.67
2018-05-15T12:16:09.263Z,3.40
2018-05-15T12:18:43.839Z,4.23
2018-05-15T12:21:14.080Z,2.70
2018-05-15T12:23:41.512Z,3.93
2018-05-15T12:26:21.784Z,4.00
2018-05-15T12:28:50.211Z,3.60
2018-05-15T12:31:17.752Z,3.70
2018-05-15T12:33:47.395Z,3.63
2018-05-15T12:36:18.193Z,13.83
2018-05-15T12:38:45.691Z,2.77
2018-05-15T12:41:13.770Z,2.20
2018-05-15T12:43:41.370Z,2.93
2018-05-15T12:46:09.628Z,4.07
2018-05-15T12:48:37.110Z,3.17
2018-05-15T12:51:05.966Z,2.63
2018-05-15T12:53:33.439Z,3.10
2018-05-15T12:56:02.483Z,3.70
2018-05-15T12:58:29.980Z,3.03
2018-05-15T13:00:57.459Z,3.00
2018-05-15T13:03:25.728Z,2.73
2018-05-15T13:05:54.344Z,3.70
2018-05-15T13:08:23.912Z,2.63
2018-05-15T13:10:58.963Z,2.77
2018-05-15T13:13:32.286Z,3.43
2018-05-15T13:16:01.123Z,2.67
2018-05-15T13:18:28.855Z,2.03
2018-05-15T13:20:56.352Z,2.70
2018-05-15T13:23:24.628Z,2.77
2018-05-15T13:25:56.574Z,2.40
2018-05-15T13:28:25.641Z,2.80
2018-05-15T13:30:54.467Z,3.20
2018-05-15T13:33:22.284Z,2.90
2018-05-15T13:35:50.048Z,2.97
2018-05-15T13:38:17.550Z,3.33
2018-05-15T13:40:45.024Z,2.27
2018-05-15T13:43:13.544Z,2.20
2018-05-15T13:45:41.072Z,2.70
2018-05-15T13:48:08.835Z,2.53
2018-05-15T13:50:37.311Z,2.43
2018-05-15T13:53:05.460Z,2.13
2018-05-15T13:55:33.029Z,2.77
2018-05-15T13:58:01.295Z,2.23
2018-05-15T14:00:29.539Z,2.73
2018-05-15T14:02:57.295Z,3.00
2018-05-15T14:05:24.777Z,2.90
2018-05-15T14:07:52.259Z,3.27
2018-05-15T14:10:20.536Z,2.53
2018-05-15T14:12:48.783Z,2.23
2018-05-15T14:15:16.286Z,2.20
2018-05-15T14:17:44.533Z,2.93
2018-05-15T14:20:12.041Z,2.43
2018-05-15T14:22:39.537Z,2.50
2018-05-15T14:25:07.267Z,6.13
2018-05-15T14:27:34.787Z,2.70
2018-05-15T14:30:03.034Z,2.20
2018-05-15T14:32:30.516Z,2.97
2018-05-15T14:34:58.777Z,2.70
2018-05-15T14:37:26.260Z,2.60
2018-05-15T14:39:54.596Z,2.57
2018-05-15T14:42:34.651Z,3.07
2018-05-15T14:45:02.144Z,2.67
2018-05-15T14:47:30.659Z,3.33
2018-05-15T14:49:58.140Z,2.60
2018-05-15T14:52:25.632Z,3.30
2018-05-15T14:54:53.880Z,2.70
2018-05-15T14:57:21.767Z,3.10
2018-05-15T14:59:49.169Z,2.53
2018-05-15T15:02:16.937Z,3.10
2018-05-15T15:04:44.580Z,3.10
2018-05-15T15:07:12.116Z,2.53
2018-05-15T15:09:40.372Z,2.83
2018-05-15T15:12:08.094Z,2.43
2018-05-15T15:14:35.592Z,2.80
2018-05-15T15:17:03.072Z,2.40
2018-05-15T15:19:31.313Z,3.03
2018-05-15T15:22:01.712Z,2.10
2018-05-15T15:24:29.184Z,3.17
2018-05-15T15:26:59.184Z,2.80
2018-05-15T15:29:26.771Z,3.00
2018-05-15T15:31:54.504Z,3.30
2018-05-15T15:34:22.267Z,3.57
2018-05-15T15:36:49.755Z,3.00
2018-05-15T15:39:17.247Z,3.70
2018-05-15T15:41:45.505Z,3.30
2018-05-15T15:44:14.136Z,3.43
2018-05-15T15:46:42.752Z,2.50
2018-05-15T15:49:11.363Z,2.07
2018-05-15T15:51:39.620Z,3.27
2018-05-15T15:54:07.098Z,2.47
2018-05-15T15:56:35.363Z,2.63
2018-05-15T15:59:03.079Z,2.73
2018-05-15T16:01:30.941Z,2.77
2018-05-15T16:04:00.818Z,2.87
2018-05-15T16:06:29.443Z,2.87
2018-05-15T16:08:56.936Z,2.57
2018-05-15T16:11:24.519Z,3.00
2018-05-15T16:13:52.767Z,2.53
2018-05-15T16:16:20.261Z,2.83
2018-05-15T16:18:48.915Z,5.53
2018-05-15T16:21:17.553Z,2.63
2018-05-15T16:23:45.028Z,2.30
2018-05-15T16:26:13.501Z,2.73
2018-05-15T16:28:41.187Z,3.63
2018-05-15T16:31:09.364Z,3.07
2018-05-15T16:33:37.360Z,2.87
2018-05-15T16:36:07.690Z,2.50
2018-05-15T16:38:36.308Z,2.10
2018-05-15T16:41:04.932Z,2.10
2018-05-15T16:43:36.082Z,2.50
2018-05-15T16:46:04.640Z,3.03
2018-05-15T16:48:36.582Z,5.70
2018-05-15T16:51:12.870Z,2.47
2018-05-15T16:53:45.579Z,2.23
2018-05-15T16:56:20.325Z,2.77
2018-05-15T16:58:49.201Z,2.47
2018-05-15T17:01:16.635Z,2.57
2018-05-15T17:03:44.349Z,2.40
2018-05-15T17:06:12.028Z,2.97
2018-05-15T17:08:41.738Z,7.90
2018-05-15T17:11:09.459Z,2.77
2018-05-15T17:13:37.011Z,4.00
2018-05-15T17:16:04.532Z,3.67
2018-05-15T17:18:35.381Z,4.30
2018-05-15T17:21:02.872Z,3.47
2018-05-15T17:23:31.926Z,6.03
2018-05-15T17:26:01.009Z,10.73
2018-05-15T17:28:29.851Z,5.50
2018-05-15T17:30:58.674Z,5.57
2018-05-15T17:33:26.380Z,4.00
2018-05-15T17:35:53.859Z,4.10
2018-05-15T17:38:22.691Z,4.17
2018-05-15T17:40:50.266Z,4.40
2018-05-15T17:43:19.028Z,7.30
2018-05-15T17:45:48.187Z,4.90
2018-05-15T17:48:16.431Z,5.17
2018-05-15T17:50:44.016Z,3.67
2018-05-15T17:53:12.875Z,3.67
2018-05-15T17:55:43.303Z,4.37
2018-05-15T17:58:14.224Z,4.57
2018-05-15T18:00:45.042Z,4.80
2018-05-15T18:03:15.907Z,3.30
2018-05-15T18:05:44.735Z,3.60
2018-05-15T18:08:13.567Z,4.20
2018-05-15T18:10:42.406Z,3.80
2018-05-15T18:13:13.934Z,5.17
2018-05-15T18:15:43.878Z,3.80
2018-05-15T18:18:12.702Z,4.43
2018-05-15T18:20:41.527Z,3.80
2018-05-15T18:23:09.016Z,3.17
2018-05-15T18:25:37.843Z,4.37
2018-05-15T18:28:05.339Z,3.40
2018-05-15T18:30:32.813Z,4.23
2018-05-15T18:33:01.415Z,3.20
2018-05-15T18:35:28.843Z,2.60
2018-05-15T18:37:58.142Z,3.70
2018-05-15T18:40:27.305Z,3.13
2018-05-15T18:42:56.217Z,4.37
2018-05-15T18:45:24.563Z,4.80
2018-05-15T18:47:52.011Z,3.37
2018-05-15T18:50:19.781Z,3.00
2018-05-15T18:52:47.268Z,4.10
2018-05-15T18:55:14.744Z,4.90
2018-05-15T18:57:42.244Z,4.00
2018-05-15T19:00:09.808Z,5.20
2018-05-15T19:02:37.288Z,5.90
2018-05-15T19:05:04.784Z,4.00
2018-05-15T19:07:33.033Z,4.53
2018-05-15T19:10:00.778Z,4.77
2018-05-15T19:12:29.068Z,4.57
2018-05-15T19:14:56.805Z,4.97
2018-05-15T19:17:24.303Z,4.43
2018-05-15T19:19:51.880Z,4.33
2018-05-15T19:22:20.731Z,4.57
2018-05-15T19:24:48.475Z,4.13
2018-05-15T19:27:16.044Z,3.33
2018-05-15T19:29:43.460Z,4.30
2018-05-15T19:32:17.150Z,2.73
2018-05-15T19:34:51.750Z,4.10
2018-05-15T19:37:29.579Z,4.13
2018-05-15T19:39:58.680Z,4.20
2018-05-15T19:42:26.928Z,3.93
2018-05-15T19:44:54.488Z,3.83
2018-05-15T19:47:21.932Z,3.80
2018-05-15T19:49:49.416Z,4.50
2018-05-15T19:52:18.917Z,3.40
2018-05-15T19:54:47.168Z,3.50
2018-05-15T19:57:14.902Z,3.37
2018-05-15T19:59:42.383Z,3.83
2018-05-15T20:02:10.384Z,3.70
2018-05-15T20:04:38.908Z,3.63
2018-05-15T20:07:07.605Z,3.30
2018-05-15T20:09:35.361Z,3.60
2018-05-15T20:12:02.840Z,3.20
2018-05-15T20:14:30.312Z,3.00
2018-05-15T20:16:57.803Z,3.83
2018-05-15T20:19:26.051Z,3.80
2018-05-15T20:21:54.471Z,4.93
2018-05-15T20:24:21.949Z,4.30
2018-05-15T20:26:49.705Z,5.30
2018-05-15T20:29:20.243Z,4.90
2018-05-15T20:31:51.783Z,3.60
2018-05-15T20:34:22.967Z,5.33
2018-05-15T20:36:55.902Z,4.50
2018-05-15T20:39:24.774Z,4.50
2018-05-15T20:41:54.257Z,3.43
2018-05-15T20:44:22.161Z,3.27
2018-05-15T20:46:50.386Z,5.23
2018-05-15T20:49:18.109Z,4.50
2018-05-15T20:51:45.608Z,3.23
2018-05-15T20:54:13.092Z,4.30
2018-05-15T20:56:41.335Z,4.33
2018-05-15T20:59:08.828Z,4.40
2018-05-15T21:01:37.075Z,4.10
2018-05-15T21:04:06.082Z,3.40
2018-05-15T21:06:34.365Z,4.50
2018-05-15T21:09:02.636Z,3.87
2018-05-15T21:11:31.163Z,4.30
2018-05-15T21:13:58.646Z,4.60
2018-05-15T21:16:27.384Z,6.30
2018-05-15T21:18:59.662Z,5.10
2018-05-15T21:21:28.501Z,4.40
2018-05-15T21:23:58.635Z,4.60
2018-05-15T21:26:38.547Z,3.97
2018-05-15T21:29:07.367Z,4.50
2018-05-15T21:31:36.193Z,5.00
2018-05-15T21:34:05.036Z,3.97
2018-05-15T21:36:37.572Z,5.63
2018-05-15T21:39:07.872Z,4.53
2018-05-15T21:41:36.695Z,5.47
2018-05-15T21:44:05.650Z,5.90
2018-05-15T21:46:34.167Z,4.77
2018-05-15T21:49:01.926Z,4.07
2018-05-15T21:51:29.424Z,5.83
2018-05-15T21:53:56.903Z,10.13
2018-05-15T21:56:25.164Z,7.23
2018-05-15T21:58:53.380Z,8.10
2018-05-15T22:01:20.852Z,5.53
2018-05-15T22:03:48.355Z,4.23
2018-05-15T22:06:15.836Z,5.53
2018-05-15T22:08:43.328Z,2.97
2018-05-15T22:11:14.123Z,4.73
2018-05-15T22:13:53.580Z,4.77
2018-05-15T22:16:34.403Z,5.40
2018-05-15T22:19:15.744Z,4.30
2018-05-15T22:21:55.645Z,4.77
2018-05-15T22:24:26.277Z,2.67
2018-05-15T22:26:54.558Z,3.70
2018-05-15T22:29:22.795Z,3.23
2018-05-15T22:31:50.288Z,4.20
2018-05-15T22:34:19.464Z,3.47
2018-05-15T22:36:46.953Z,3.60
2018-05-15T22:39:15.628Z,2.83
2018-05-15T22:41:43.981Z,3.80
2018-05-15T22:44:12.147Z,4.60
2018-05-15T22:46:39.639Z,6.50
2018-05-15T22:49:07.884Z,3.73
2018-05-15T22:51:35.383Z,3.00
2018-05-15T22:54:03.645Z,5.10
2018-05-15T22:56:32.268Z,4.20
2018-05-15T22:58:59.795Z,4.10
2018-05-15T23:01:28.412Z,6.00
2018-05-15T23:03:55.932Z,3.43
2018-05-15T23:06:24.215Z,3.30
2018-05-15T23:08:52.741Z,5.80
2018-05-15T23:11:20.291Z,5.17
2018-05-15T23:13:47.780Z,5.37
2018-05-15T23:16:15.263Z,10.37
2018-05-15T23:18:43.511Z,4.10
2018-05-15T23:21:11.007Z,4.47
2018-05-15T23:23:39.247Z,4.33
2018-05-15T23:26:08.171Z,4.80
2018-05-15T23:28:36.792Z,3.87
2018-05-15T23:31:04.288Z,5.10
2018-05-15T23:33:31.764Z,3.60
2018-05-15T23:36:03.315Z,4.63
2018-05-15T23:38:35.363Z,4.47
2018-05-15T23:41:11.267Z,5.40
2018-05-15T23:43:49.035Z,4.00
2018-05-15T23:46:18.299Z,4.67
2018-05-15T23:48:45.775Z,3.70
2018-05-15T23:51:13.491Z,3.33
2018-05-15T23:53:40.984Z,3.90
2018-05-15T23:56:08.464Z,5.97
2018-05-15T23:58:36.723Z,4.37
